Time;durP1;ratioP1;P1;durP2;ratioP2;P2;SDS_P1;SDS_P2;PMS_P1;PMS_P2;Temp;Humidity;BMP_temperature;BMP_pressure;BME280_temperature;BME280_humidity;BME280_pressure;Samples;Min_cycle;Max_cycle;Signal;HPM_P1;HPM_P2
2022/10/07 00:02:25;;;;;;;;;;;;;9.60;98787.60;;;;108934;1269;42149;-59
2022/10/07 00:04:56;;;;;;;;;;;;;9.60;98789.60;;;;109015;1269;41147;-59
2022/10/07 00:07:29;;;;;;;;;;;;;9.60;98790.60;;;;109022;1268;41895;-59
2022/10/07 00:10:00;;;;;;;;;;;;;9.60;98796.60;;;;108991;1260;41146;-59
2022/10/07 00:12:29;;;;;;;;;;;;;9.60;98791.80;;;;109043;1268;41920;-60
2022/10/07 00:15:01;;;;;;;;;;;;;9.60;98792.80;;;;109028;1265;41210;-60
2022/10/07 00:17:32;;;;;;;;;;;;;9.60;98795.80;;;;109016;1268;41165;-60
2022/10/07 00:20:02;;;;;;;;;;;;;9.60;98794.00;;;;109013;1269;41146;-61
2022/10/07 00:22:32;;;;;;;;;;;;;9.60;98793.20;;;;108954;1269;41706;-60
2022/10/07 00:25:02;;;;;;;;;;;;;9.60;98799.60;;;;109052;1267;41933;-60
2022/10/07 00:27:33;;;;;;;;;;;;;9.60;98798.60;;;;109110;1268;41140;-61
2022/10/07 00:30:06;;;;;;;;;;;;;9.60;98801.60;;;;108946;1268;42202;-61
2022/10/07 00:32:37;;;;;;;;;;;;;9.60;98797.60;;;;108992;1269;41719;-61
2022/10/07 00:35:08;;;;;;;;;;;;;9.60;98803.40;;;;108994;1269;41163;-62
2022/10/07 00:37:41;;;;;;;;;;;;;9.54;98796.20;;;;109091;1257;41234;-61
2022/10/07 00:40:13;;;;;;;;;;;;;9.50;98801.60;;;;109000;1268;42186;-61
2022/10/07 00:42:42;;;;;;;;;;;;;9.50;98799.00;;;;109201;1268;41685;-61
2022/10/07 00:45:15;;;;;;;;;;;;;9.40;98802.80;;;;109017;1268;41606;-60
2022/10/07 00:47:46;;;;;;;;;;;;;9.40;98802.00;;;;109036;1266;41995;-60
2022/10/07 00:50:21;;;;;;;;;;;;;9.30;98796.80;;;;109069;1268;41924;-60
2022/10/07 00:52:51;;;;;;;;;;;;;9.30;98795.00;;;;109088;1269;41148;-61
2022/10/07 00:55:24;;;;;;;;;;;;;9.30;98796.40;;;;109014;1266;41211;-61
2022/10/07 00:57:58;;;;;;;;;;;;;9.30;98795.00;;;;109041;1268;41592;-61
2022/10/07 01:00:28;;;;;;;;;;;;;9.26;98785.60;;;;108972;1268;41239;-60
2022/10/07 01:03:01;;;;;;;;;;;;;9.22;98784.00;;;;109087;1267;41140;-61
2022/10/07 01:05:33;;;;;;;;;;;;;9.20;98780.60;;;;109032;1269;41663;-60
2022/10/07 01:08:03;;;;;;;;;;;;;9.20;98776.60;;;;108952;1269;41153;-61
2022/10/07 01:10:44;;;;;;;;;;;;;9.20;98778.00;;;;108983;1269;41610;-61
2022/10/07 01:13:37;;;;;;;;;;;;;9.20;98775.40;;;;108830;1269;41684;-59
2022/10/07 01:16:11;;;;;;;;;;;;;9.12;98782.40;;;;109010;1269;41140;-60
2022/10/07 01:18:45;;;;;;;;;;;;;9.10;98778.20;;;;109020;1256;41222;-60
2022/10/07 01:21:31;;;;;;;;;;;;;9.06;98781.40;;;;109037;1269;41148;-60
2022/10/07 01:24:05;;;;;;;;;;;;;9.00;98779.00;;;;109026;1269;41147;-60
2022/10/07 01:26:51;;;;;;;;;;;;;9.00;98787.80;;;;109026;1257;41607;-60
2022/10/07 01:29:23;;;;;;;;;;;;;9.00;98781.00;;;;108983;1269;42423;-61
2022/10/07 01:31:55;;;;;;;;;;;;;9.00;98786.20;;;;108987;1269;41148;-61
2022/10/07 01:34:25;;;;;;;;;;;;;9.00;98781.80;;;;109018;1269;42513;-61
2022/10/07 01:36:55;;;;;;;;;;;;;9.00;98782.40;;;;109023;1269;41690;-61
2022/10/07 01:39:27;;;;;;;;;;;;;9.00;98785.60;;;;108967;1269;41881;-61
2022/10/07 01:41:57;;;;;;;;;;;;;9.00;98783.60;;;;108990;1269;41488;-61
2022/10/07 01:44:27;;;;;;;;;;;;;8.98;98784.80;;;;109007;1267;41163;-60
2022/10/07 01:46:57;;;;;;;;;;;;;8.90;98781.60;;;;108989;1262;41657;-60
2022/10/07 01:49:25;;;;;;;;;;;;;8.90;98784.20;;;;109056;1269;41902;-60
2022/10/07 01:52:02;;;;;;;;;;;;;8.90;98780.60;;;;108970;1269;41337;-61
2022/10/07 01:54:37;;;;;;;;;;;;;8.90;98778.60;;;;109042;1269;41178;-60
2022/10/07 01:57:16;;;;;;;;;;;;;8.90;98777.40;;;;108998;1270;41569;-61
2022/10/07 01:59:50;;;;;;;;;;;;;8.80;98778.20;;;;108826;1269;41431;-61
2022/10/07 02:02:25;;;;;;;;;;;;;8.80;98780.00;;;;108941;1269;41235;-61
2022/10/07 02:04:59;;;;;;;;;;;;;8.80;98774.40;;;;109027;1269;41851;-60
2022/10/07 02:07:39;;;;;;;;;;;;;8.80;98776.00;;;;108919;1269;41228;-61
2022/10/07 02:10:27;;;;;;;;;;;;;8.70;98778.20;;;;109011;1267;41243;-60
2022/10/07 02:13:07;;;;;;;;;;;;;8.60;98781.40;;;;108975;1267;43005;-60
2022/10/07 02:15:43;;;;;;;;;;;;;8.50;98787.20;;;;109041;1269;41245;-61
2022/10/07 02:18:15;;;;;;;;;;;;;8.50;98789.80;;;;108996;1269;41198;-61
2022/10/07 02:20:49;;;;;;;;;;;;;8.50;98786.80;;;;109080;1269;41648;-60
2022/10/07 02:23:21;;;;;;;;;;;;;8.50;98783.80;;;;108931;1268;41610;-60
2022/10/07 02:25:51;;;;;;;;;;;;;8.50;98782.40;;;;109006;1269;41982;-60
2022/10/07 02:28:24;;;;;;;;;;;;;8.44;98787.60;;;;108968;1269;41902;-60
2022/10/07 02:30:55;;;;;;;;;;;;;8.40;98784.20;;;;108813;1272;41689;-60
2022/10/07 02:33:26;;;;;;;;;;;;;8.36;98782.60;;;;108896;1269;42398;-60
2022/10/07 02:35:59;;;;;;;;;;;;;8.30;98787.40;;;;109051;1269;41155;-61
2022/10/07 02:38:29;;;;;;;;;;;;;8.30;98791.60;;;;108980;1269;41130;-60
2022/10/07 02:41:11;;;;;;;;;;;;;8.30;98796.60;;;;108822;1267;41807;-61
2022/10/07 02:43:55;;;;;;;;;;;;;8.20;98788.20;;;;108868;1271;42408;-60
2022/10/07 02:46:25;;;;;;;;;;;;;8.20;98789.80;;;;108648;1272;41854;-61
2022/10/07 02:48:58;;;;;;;;;;;;;8.20;98787.80;;;;108743;1267;42184;-60
2022/10/07 02:51:48;;;;;;;;;;;;;8.20;98783.80;;;;109030;1263;41157;-60
2022/10/07 02:54:19;;;;;;;;;;;;;8.20;98788.80;;;;108985;1269;41156;-60
2022/10/07 02:56:48;;;;;;;;;;;;;8.10;98786.00;;;;109066;1267;41237;-60
2022/10/07 02:59:19;;;;;;;;;;;;;8.12;98789.20;;;;109082;1269;41370;-61
2022/10/07 03:01:49;;;;;;;;;;;;;8.10;98786.20;;;;109047;1266;41232;-60
2022/10/07 03:04:18;;;;;;;;;;;;;8.10;98791.80;;;;109006;1269;41148;-60
2022/10/07 03:06:48;;;;;;;;;;;;;8.02;98790.00;;;;109100;1268;41147;-61
2022/10/07 03:09:19;;;;;;;;;;;;;8.00;98784.80;;;;109022;1264;41156;-60
2022/10/07 03:11:50;;;;;;;;;;;;;8.00;98785.60;;;;108722;1263;41632;-60
2022/10/07 03:14:19;;;;;;;;;;;;;8.00;98790.20;;;;108990;1269;41236;-60
2022/10/07 03:16:50;;;;;;;;;;;;;7.92;98790.40;;;;109019;1271;41159;-60
2022/10/07 03:19:20;;;;;;;;;;;;;7.90;98789.60;;;;109147;1269;41781;-60
2022/10/07 03:21:55;;;;;;;;;;;;;7.90;98788.00;;;;109302;1256;41169;-58
2022/10/07 03:24:25;;;;;;;;;;;;;7.90;98790.40;;;;109063;1269;41141;-60
2022/10/07 03:26:55;;;;;;;;;;;;;7.90;98791.60;;;;109273;1258;40888;-60
2022/10/07 03:29:25;;;;;;;;;;;;;7.90;98786.00;;;;109133;1256;41203;-60
2022/10/07 03:31:54;;;;;;;;;;;;;7.90;98788.60;;;;109362;1256;41135;-60
2022/10/07 03:34:26;;;;;;;;;;;;;7.90;98782.40;;;;109245;1260;41379;-60
2022/10/07 03:51:23;;;;;;;10.60;3.70;;;;;8.38;98781.60;;;;106077;1292;582394;-60
2022/10/07 03:53:56;;;;;;;9.40;3.70;;;;;8.40;98781.20;;;;107506;1284;406942;-60
2022/10/07 03:56:27;;;;;;;8.20;4.00;;;;;8.30;98777.60;;;;108081;1276;41168;-59
2022/10/07 03:58:56;;;;;;;9.90;3.90;;;;;8.30;98774.40;;;;108679;1263;42602;-59
2022/10/07 04:01:30;;;;;;;15.00;4.60;;;;;8.20;98770.20;;;;108700;1267;41146;-60
2022/10/07 04:04:00;;;;;;;10.60;4.10;;;;;8.10;98768.40;;;;108529;1275;41247;-61
2022/10/07 04:06:34;;;;;;;11.20;4.10;;;;;8.00;98768.20;;;;108371;1269;41760;-61
2022/10/07 04:09:06;;;;;;;9.30;3.90;;;;;8.00;98767.00;;;;108392;1262;41153;-60
2022/10/07 04:11:39;;;;;;;10.70;4.10;;;;;7.90;98761.00;;;;108782;1272;42011;-61
2022/10/07 04:14:09;;;;;;;10.00;4.90;;;;;7.90;98767.40;;;;108704;1271;41771;-61
2022/10/07 04:16:38;;;;;;;7.90;3.70;;;;;7.80;98769.00;;;;108720;1260;41417;-61
2022/10/07 04:19:08;;;;;;;8.20;3.20;;;;;7.80;98768.40;;;;108483;1272;41171;-60
2022/10/07 04:21:40;;;;;;;9.00;3.50;;;;;7.78;98772.60;;;;108651;1269;41149;-61
2022/10/07 04:24:09;;;;;;;8.10;3.30;;;;;7.70;98770.20;;;;108801;1272;41435;-61
2022/10/07 04:26:38;;;;;;;7.10;2.90;;;;;7.70;98769.40;;;;108733;1264;41239;-61
2022/10/07 04:29:07;;;;;;;7.80;3.30;;;;;7.70;98763.20;;;;108693;1260;42151;-60
2022/10/07 04:31:36;;;;;;;7.00;2.90;;;;;7.70;98762.80;;;;108809;1260;41615;-60
2022/10/07 04:34:06;;;;;;;7.60;3.00;;;;;7.68;98755.20;;;;108865;1273;41147;-62
2022/10/07 04:36:40;;;;;;;7.60;3.20;;;;;7.60;98759.00;;;;108746;1272;41457;-62
2022/10/07 04:39:17;;;;;;;8.20;3.10;;;;;7.60;98751.60;;;;108876;1269;42334;-60
2022/10/07 04:42:07;;;;;;;8.30;2.90;;;;;7.60;98753.40;;;;108855;1272;41214;-61
2022/10/07 04:44:37;;;;;;;7.80;3.30;;;;;7.60;98754.20;;;;108763;1260;41138;-61
2022/10/07 04:47:07;;;;;;;8.70;3.60;;;;;7.60;98751.20;;;;108682;1273;41146;-61
2022/10/07 04:49:42;;;;;;;8.20;3.60;;;;;7.60;98762.40;;;;108679;1273;41229;-60
2022/10/07 04:52:21;;;;;;;10.50;4.60;;;;;7.60;98764.20;;;;108585;1274;41677;-60
2022/10/07 04:54:51;;;;;;;10.70;4.70;;;;;7.60;98762.00;;;;108639;1275;41624;-60
2022/10/07 04:57:20;;;;;;;14.00;6.10;;;;;7.60;98760.40;;;;108639;1272;41245;-60
2022/10/07 04:59:50;;;;;;;12.60;5.50;;;;;7.60;98766.40;;;;108603;1275;41967;-60
2022/10/07 05:02:21;;;;;;;12.90;5.40;;;;;7.60;98772.60;;;;108603;1269;41188;-61
2022/10/07 05:04:50;;;;;;;15.90;7.70;;;;;7.60;98780.40;;;;108648;1275;41608;-60
2022/10/07 05:07:18;;;;;;;11.20;5.20;;;;;7.60;98778.80;;;;108565;1274;41140;-61
2022/10/07 05:09:48;;;;;;;13.90;5.50;;;;;7.60;98771.20;;;;108726;1270;41143;-61
2022/10/07 05:12:19;;;;;;;20.20;7.20;;;;;7.60;98767.80;;;;108679;1273;41230;-60
2022/10/07 05:14:48;;;;;;;11.50;5.70;;;;;7.64;98769.20;;;;108866;1273;41146;-61
2022/10/07 05:17:19;;;;;;;13.00;5.40;;;;;7.70;98774.40;;;;108790;1274;41142;-60
2022/10/07 05:19:48;;;;;;;11.50;5.40;;;;;7.80;98768.40;;;;108836;1260;41700;-60
2022/10/07 05:22:17;;;;;;;10.90;4.60;;;;;7.84;98768.40;;;;108672;1274;41737;-60
2022/10/07 05:24:47;;;;;;;11.30;4.60;;;;;7.92;98763.20;;;;108885;1272;41142;-60
2022/10/07 05:27:16;;;;;;;9.10;4.00;;;;;8.02;98765.80;;;;108718;1275;41285;-61
2022/10/07 05:29:44;;;;;;;10.20;4.20;;;;;8.10;98765.20;;;;108749;1259;41775;-60
2022/10/07 05:32:14;;;;;;;9.50;4.00;;;;;8.22;98764.60;;;;108640;1273;41644;-62
2022/10/07 05:34:46;;;;;;;8.70;3.80;;;;;8.40;98763.40;;;;108788;1272;41147;-62
2022/10/07 05:37:18;;;;;;;11.80;5.80;;;;;8.50;98771.00;;;;108729;1272;41143;-61
2022/10/07 05:39:47;;;;;;;16.70;7.60;;;;;8.64;98772.80;;;;108761;1275;42004;-61
2022/10/07 05:42:19;;;;;;;12.60;6.00;;;;;8.70;98772.40;;;;108799;1264;41149;-60
2022/10/07 05:44:53;;;;;;;13.80;6.90;;;;;8.80;98776.40;;;;108807;1272;41644;-61
2022/10/07 05:47:22;;;;;;;14.60;7.60;;;;;8.90;98778.40;;;;108715;1272;41239;-61
2022/10/07 05:49:55;;;;;;;13.00;6.30;;;;;9.00;98777.60;;;;108713;1272;41277;-61
2022/10/07 05:52:25;;;;;;;17.50;7.50;;;;;9.00;98775.80;;;;108715;1274;41243;-61
2022/10/07 05:54:56;;;;;;;17.70;7.00;;;;;9.10;98778.80;;;;108732;1268;41239;-62
2022/10/07 05:57:26;;;;;;;14.60;7.50;;;;;9.20;98779.60;;;;108716;1274;41250;-61
2022/10/07 05:59:57;;;;;;;14.00;7.00;;;;;9.30;98786.20;;;;108717;1260;41288;-61
2022/10/07 06:02:28;;;;;;;12.40;5.80;;;;;9.40;98786.00;;;;108810;1272;41655;-62
2022/10/07 06:04:57;;;;;;;14.70;6.00;;;;;9.60;98783.80;;;;108786;1273;42422;-61
2022/10/07 06:07:25;;;;;;;12.50;5.10;;;;;9.80;98783.00;;;;108729;1275;41243;-60
2022/10/07 06:15:34;;;;;;;11.90;5.50;;;;;10.40;98777.60;;;;108643;1274;41898;-62
2022/10/07 06:18:04;;;;;;;11.80;5.50;;;;;10.60;98781.40;;;;108687;1273;41711;-59
2022/10/07 06:20:40;;;;;;;11.90;5.40;;;;;10.70;98785.80;;;;108711;1273;41960;-60
2022/10/07 06:23:19;;;;;;;11.00;5.30;;;;;10.80;98783.60;;;;108658;1273;41144;-60
2022/10/07 06:25:58;;;;;;;11.40;5.40;;;;;11.00;98787.00;;;;108790;1266;41143;-61
2022/10/07 06:28:36;;;;;;;13.00;5.60;;;;;11.16;98788.80;;;;108812;1269;41243;-61
2022/10/07 06:31:11;;;;;;;16.40;5.40;;;;;11.30;98784.60;;;;108762;1274;41171;-61
2022/10/07 06:33:40;;;;;;;10.40;4.90;;;;;11.50;98789.60;;;;108764;1275;41156;-62
2022/10/07 06:36:12;;;;;;;8.60;4.10;;;;;11.64;98784.40;;;;108741;1272;41607;-60
2022/10/07 06:38:47;;;;;;;9.30;4.10;;;;;11.80;98786.40;;;;108660;1272;41252;-61
2022/10/07 06:41:20;;;;;;;10.10;4.60;;;;;11.92;98783.40;;;;108871;1271;41178;-61
2022/10/07 06:44:22;;;;;;;10.00;3.90;;;;;12.10;98788.40;;;;108580;1271;41277;-61
2022/10/07 06:46:52;;;;;;;9.90;4.10;;;;;12.24;98787.00;;;;108644;1259;41148;-61
2022/10/07 06:49:20;;;;;;;9.90;4.20;;;;;12.40;98786.60;;;;108665;1269;41158;-61
2022/10/07 06:51:51;;;;;;;8.90;3.70;;;;;12.50;98785.40;;;;108788;1266;41616;-61
2022/10/07 06:54:21;;;;;;;9.00;3.90;;;;;12.70;98780.60;;;;108726;1271;41166;-61
2022/10/07 06:56:49;;;;;;;9.20;3.70;;;;;12.80;98785.40;;;;108686;1272;41309;-61
2022/10/07 06:59:19;;;;;;;8.60;3.40;;;;;13.00;98786.80;;;;108618;1269;41137;-61
2022/10/07 07:01:58;;;;;;;8.00;3.40;;;;;13.20;98787.40;;;;108592;1268;41158;-61
2022/10/07 07:04:27;;;;;;;8.10;3.60;;;;;13.42;98790.80;;;;108629;1263;41232;-60
2022/10/07 07:06:56;;;;;;;8.00;3.50;;;;;13.68;98786.80;;;;108571;1271;41387;-61
2022/10/07 07:09:25;;;;;;;8.30;3.40;;;;;13.84;98779.40;;;;108657;1272;41157;-60
2022/10/07 07:11:56;;;;;;;9.00;3.30;;;;;13.90;98783.00;;;;108847;1263;42306;-60
2022/10/07 07:14:33;;;;;;;10.00;3.40;;;;;14.00;98781.60;;;;108775;1271;41143;-60
2022/10/07 07:17:10;;;;;;;7.00;3.20;;;;;14.10;98777.80;;;;108835;1271;41138;-60
2022/10/07 07:19:39;;;;;;;8.40;3.00;;;;;14.24;98774.40;;;;108779;1272;41597;-60
2022/10/07 07:22:08;;;;;;;7.10;2.80;;;;;14.40;98770.00;;;;108767;1271;41125;-60
2022/10/07 07:24:37;;;;;;;7.20;3.20;;;;;14.60;98769.00;;;;108719;1274;40870;-59
2022/10/07 07:27:07;;;;;;;9.60;3.30;;;;;14.80;98771.40;;;;108587;1271;41642;-59
2022/10/07 07:29:35;;;;;;;6.10;2.60;;;;;15.00;98769.00;;;;108798;1268;41203;-59
2022/10/07 07:32:05;;;;;;;8.20;2.60;;;;;15.22;98769.80;;;;108857;1271;41177;-59
2022/10/07 07:34:36;;;;;;;6.60;3.00;;;;;15.40;98763.80;;;;108770;1271;41152;-59
2022/10/07 07:37:06;;;;;;;7.10;2.90;;;;;15.62;98767.00;;;;108766;1271;41161;-60
2022/10/07 10:57:30;;;;;;;4.80;1.80;;;;;35.50;98570.00;;;;106252;1299;581461;-60
2022/10/07 11:00:14;;;;;;;6.40;1.80;;;;;36.72;98564.80;;;;107678;1282;367195;-60
2022/10/07 11:02:45;;;;;;;4.30;1.80;;;;;37.48;98563.60;;;;108448;1268;42107;-60
2022/10/07 11:05:19;;;;;;;5.60;1.90;;;;;38.26;98559.00;;;;108540;1277;41148;-59
2022/10/07 11:07:48;;;;;;;5.50;2.10;;;;;38.68;98554.80;;;;108373;1265;41684;-59
2022/10/07 11:10:21;;;;;;;4.80;2.00;;;;;38.10;98546.00;;;;108255;1275;41147;-59
2022/10/07 11:12:57;;;;;;;5.30;2.00;;;;;38.02;98547.60;;;;108354;1262;41249;-60
2022/10/07 11:15:33;;;;;;;5.00;2.10;;;;;38.18;98555.00;;;;108400;1276;41953;-59
2022/10/07 11:18:09;;;;;;;3.40;1.60;;;;;37.60;98547.40;;;;108546;1275;41253;-60
2022/10/07 11:20:42;;;;;;;4.10;1.80;;;;;37.94;98542.20;;;;108477;1274;41243;-59
2022/10/07 11:23:22;;;;;;;3.60;1.80;;;;;38.26;98540.00;;;;108491;1275;41444;-59
2022/10/07 11:26:16;;;;;;;5.00;2.10;;;;;38.56;98546.00;;;;108390;1262;41563;-60
2022/10/07 11:28:45;;;;;;;4.80;2.00;;;;;38.76;98537.20;;;;108495;1276;41159;-59
2022/10/07 11:31:25;;;;;;;4.70;1.80;;;;;39.20;98533.80;;;;108510;1266;41257;-59
2022/10/07 11:34:09;;;;;;;5.10;2.00;;;;;39.06;98532.60;;;;108605;1275;41942;-59
2022/10/07 11:36:43;;;;;;;6.70;2.00;;;;;39.02;98528.20;;;;108534;1273;42530;-60
2022/10/07 11:39:12;;;;;;;5.50;2.00;;;;;39.36;98526.20;;;;108418;1271;44453;-60
2022/10/07 11:41:50;;;;;;;3.10;1.50;;;;;40.06;98521.80;;;;108590;1274;41605;-60
2022/10/07 11:44:30;;;;;;;5.10;2.00;;;;;40.90;98521.60;;;;108336;1275;41150;-60
2022/10/07 11:47:01;;;;;;;4.80;2.00;;;;;41.50;98512.40;;;;108592;1262;41695;-60
2022/10/07 11:49:42;;;;;;;3.50;1.60;;;;;41.86;98507.40;;;;108557;1271;41623;-60
2022/10/07 11:52:20;;;;;;;4.80;1.80;;;;;42.40;98507.40;;;;108566;1276;41611;-60
2022/10/07 11:54:52;;;;;;;;;;;;;42.46;98507.80;;;;108633;1262;41165;-60
2022/10/07 11:57:24;;;;;;;2.80;1.50;;;;;42.60;98503.80;;;;108539;1266;41180;-60
2022/10/07 11:59:57;;;;;;;3.90;1.90;;;;;42.62;98505.00;;;;108447;1272;41884;-60
2022/10/07 12:02:28;;;;;;;4.50;1.90;;;;;42.44;98502.80;;;;108559;1274;41243;-60
2022/10/07 12:04:58;;;;;;;4.80;2.00;;;;;42.32;98500.40;;;;108634;1269;41225;-60
2022/10/07 12:07:43;;;;;;;5.20;1.90;;;;;41.98;98491.60;;;;108647;1270;41816;-60
2022/10/07 12:10:16;;;;;;;5.80;2.10;;;;;41.54;98495.80;;;;108521;1275;41605;-59
2022/10/07 12:12:47;;;;;;;5.30;2.10;;;;;40.58;98494.20;;;;108504;1274;41444;-59
2022/10/07 12:15:40;;;;;;;6.10;2.10;;;;;39.48;98493.80;;;;108316;1277;41257;-60
2022/10/07 12:18:15;;;;;;;6.00;2.20;;;;;39.16;98503.40;;;;108466;1272;41757;-60
2022/10/07 12:34:42;;;;;;;4.60;2.00;;;;;35.50;98494.80;;;;106253;1299;581779;-60
2022/10/07 12:37:39;;;;;;;5.40;2.10;;;;;34.70;98485.00;;;;107832;1282;216985;-60
2022/10/07 12:40:15;;;;;;;8.10;2.20;;;;;34.50;98494.00;;;;108218;1270;41676;-60
2022/10/07 12:43:23;;;;;;;6.40;2.20;;;;;33.90;98488.20;;;;108217;1280;41199;-60
2022/10/07 12:45:52;;;;;;;5.30;2.00;;;;;33.30;98487.40;;;;107957;1282;42269;-60
2022/10/07 12:48:23;;;;;;;5.00;2.00;;;;;33.54;98487.80;;;;108055;1282;41251;-59
2022/10/07 12:50:52;;;;;;;5.20;1.80;;;;;33.84;98479.00;;;;108001;1282;41154;-59
2022/10/07 12:53:23;;;;;;;4.60;2.00;;;;;34.62;98476.40;;;;108073;1282;41327;-59
2022/10/07 12:55:54;;;;;;;5.10;1.80;;;;;35.46;98474.00;;;;108333;1282;41914;-59
2022/10/07 13:01:10;;;;;;;5.10;1.90;;;;;37.22;98461.40;;;;108079;1282;41236;-59
2022/10/07 13:03:55;;;;;;;;;;;;;37.84;98464.00;;;;108106;1282;41882;-59
2022/10/07 13:07:19;;;;;;;6.80;1.90;;;;;38.30;98457.40;;;;108097;1282;41173;-59
2022/10/07 13:10:06;;;;;;;5.10;2.00;;;;;38.90;98454.00;;;;108526;1275;41323;-60
2022/10/07 13:12:45;;;;;;;4.30;1.80;;;;;39.36;98454.80;;;;108709;1275;41172;-61
2022/10/07 13:15:21;;;;;;;4.40;1.60;;;;;39.38;98453.40;;;;108733;1268;40700;-59
2022/10/07 13:18:18;;;;;;;5.60;2.10;;;;;39.38;98446.80;;;;108615;1261;41150;-59
2022/10/07 13:21:01;;;;;;;5.40;1.90;;;;;39.50;98446.20;;;;108535;1275;41175;-60
2022/10/07 13:23:30;;;;;;;3.90;1.80;;;;;39.68;98441.60;;;;108712;1275;41637;-60
2022/10/07 13:26:01;;;;;;;5.00;2.00;;;;;39.76;98438.80;;;;108639;1268;41765;-60
2022/10/07 13:28:38;;;;;;;5.00;1.90;;;;;39.94;98435.20;;;;108675;1272;42066;-60
2022/10/07 13:31:20;;;;;;;2.80;1.60;;;;;40.10;98432.80;;;;108702;1275;41176;-59
2022/10/07 13:33:50;;;;;;;4.40;1.80;;;;;40.40;98432.00;;;;108689;1275;41449;-59
2022/10/07 13:36:27;;;;;;;4.10;1.80;;;;;40.68;98432.40;;;;108791;1260;41129;-59
2022/10/07 13:39:19;;;;;;;3.40;1.60;;;;;40.70;98427.20;;;;108778;1271;42595;-60
2022/10/07 13:41:50;;;;;;;7.20;2.00;;;;;40.78;98417.80;;;;108593;1275;41630;-59
2022/10/07 13:44:19;;;;;;;4.50;1.90;;;;;40.50;98426.60;;;;108511;1275;41374;-59
2022/10/07 13:47:00;;;;;;;5.20;1.80;;;;;40.20;98422.40;;;;108680;1275;42026;-60
2022/10/07 13:49:34;;;;;;;5.40;1.80;;;;;40.02;98418.20;;;;108654;1275;41156;-60
2022/10/07 13:52:06;;;;;;;4.00;1.70;;;;;40.08;98417.40;;;;108676;1268;40939;-60
2022/10/07 13:54:35;;;;;;;4.30;1.60;;;;;40.00;98419.20;;;;108668;1274;41137;-60
2022/10/07 13:57:03;;;;;;;;;;;;;39.64;98422.20;;;;108568;1275;41618;-61
2022/10/07 13:59:36;;;;;;;7.40;1.80;;;;;38.74;98419.00;;;;108506;1275;41626;-60
2022/10/07 14:02:14;;;;;;;5.50;1.80;;;;;38.20;98415.60;;;;108670;1267;41144;-60
2022/10/07 14:04:58;;;;;;;3.60;1.60;;;;;37.66;98415.20;;;;108639;1275;41700;-60
2022/10/07 14:07:30;;;;;;;4.30;1.90;;;;;37.22;98411.20;;;;108907;1272;41453;-60
2022/10/07 14:10:08;;;;;;;4.70;1.60;;;;;36.92;98410.20;;;;108919;1272;41155;-60
2022/10/07 14:12:42;;;;;;;4.80;1.90;;;;;36.50;98413.00;;;;109007;1272;41924;-60
2022/10/07 14:15:18;;;;;;;3.70;1.60;;;;;36.00;98416.20;;;;108958;1257;41185;-60
2022/10/07 14:17:55;;;;;;;3.80;1.60;;;;;35.30;98416.00;;;;109032;1272;41228;-60
2022/10/07 14:20:33;;;;;;;4.60;1.70;;;;;34.80;98412.60;;;;108918;1271;41166;-59
2022/10/07 14:23:04;;;;;;;;;;;;;34.24;98414.20;;;;108795;1260;42764;-61
2022/10/07 14:25:54;;;;;;;5.80;1.70;;;;;33.54;98417.40;;;;108668;1267;41134;-59
2022/10/07 14:28:23;;;;;;;4.30;1.80;;;;;33.10;98420.80;;;;108654;1267;41136;-60
2022/10/07 14:37:08;;;;;;;6.40;1.50;;;;;31.70;98417.60;;;;108704;1272;41672;-60
2022/10/07 14:39:43;;;;;;;;;;;;;31.30;98420.40;;;;108576;1271;41662;-60
2022/10/07 14:42:35;;;;;;;3.90;1.60;;;;;30.90;98418.80;;;;108715;1272;41827;-59
2022/10/07 14:45:08;;;;;;;5.80;1.70;;;;;30.54;98417.80;;;;108603;1260;42501;-60
2022/10/07 14:47:37;;;;;;;3.20;1.50;;;;;30.30;98419.40;;;;108672;1269;41168;-60
2022/10/07 14:50:07;;;;;;;3.10;1.50;;;;;30.00;98419.60;;;;108806;1272;41167;-60
2022/10/07 14:52:42;;;;;;;4.20;1.80;;;;;29.80;98417.60;;;;108751;1267;42567;-60
2022/10/07 14:55:23;;;;;;;4.90;1.60;;;;;29.48;98417.40;;;;108604;1269;41211;-60
2022/10/07 14:57:52;;;;;;;5.60;1.80;;;;;29.10;98417.40;;;;108664;1272;41234;-60
2022/10/07 15:00:23;;;;;;;3.70;1.70;;;;;28.70;98418.20;;;;108787;1269;41699;-59
2022/10/07 15:02:53;;;;;;;3.70;1.80;;;;;28.28;98420.60;;;;108615;1271;41183;-60
2022/10/07 15:05:23;;;;;;;3.30;1.70;;;;;27.90;98418.80;;;;108888;1267;41155;-59
2022/10/07 15:07:51;;;;;;;4.10;1.80;;;;;27.70;98420.60;;;;108959;1270;41135;-59
2022/10/07 15:10:25;;;;;;;5.50;1.90;;;;;27.40;98419.40;;;;108719;1257;41611;-59
2022/10/07 15:12:55;;;;;;;4.60;1.70;;;;;27.10;98418.20;;;;109009;1272;41136;-59
2022/10/07 15:15:24;;;;;;;4.00;1.70;;;;;26.90;98413.40;;;;108868;1266;41154;-59
2022/10/07 15:32:40;;;;;;;4.10;1.70;;;;;26.68;98408.60;;;;106546;1282;581195;-60
2022/10/07 15:48:56;;;;;;;4.40;1.90;;;;;25.88;98407.60;;;;106227;1294;582108;-60
2022/10/07 15:51:25;;;;;;;5.10;1.80;;;;;25.44;98407.60;;;;107557;1284;392718;-60
2022/10/07 15:53:54;;;;;;;4.00;1.90;;;;;25.12;98403.80;;;;108596;1277;41148;-60
2022/10/07 15:56:24;;;;;;;3.60;1.70;;;;;24.84;98408.80;;;;108496;1279;41430;-60
2022/10/07 15:58:52;;;;;;;3.60;1.80;;;;;24.60;98405.60;;;;108437;1279;41612;-60
2022/10/07 16:01:21;;;;;;;5.30;2.00;;;;;24.34;98412.00;;;;108541;1279;41591;-60
2022/10/07 16:03:49;;;;;;;4.60;1.90;;;;;24.04;98416.40;;;;108593;1275;41186;-60
2022/10/07 16:06:23;;;;;;;4.70;1.80;;;;;23.86;98414.00;;;;108610;1279;41295;-60
2022/10/07 16:08:56;;;;;;;9.30;2.90;;;;;23.72;98412.80;;;;108506;1277;41616;-60
2022/10/07 16:11:26;;;;;;;12.70;5.50;;;;;23.60;98413.80;;;;108554;1277;42009;-60
2022/10/07 16:13:55;;;;;;;31.50;11.90;;;;;23.30;98417.00;;;;108595;1275;42417;-60
2022/10/07 16:16:25;;;;;;;31.60;15.60;;;;;23.04;98421.20;;;;108608;1277;41400;-60
2022/10/07 16:18:56;;;;;;;31.50;16.80;;;;;22.74;98421.60;;;;108618;1279;41464;-60
2022/10/07 16:21:30;;;;;;;26.10;13.70;;;;;22.50;98425.80;;;;108636;1270;41179;-59
2022/10/07 16:24:04;;;;;;;19.90;11.50;;;;;22.40;98420.20;;;;108635;1268;41153;-60
2022/10/07 16:26:34;;;;;;;18.80;9.30;;;;;22.40;98415.60;;;;108743;1267;41165;-59
2022/10/07 16:31:53;;;;;;;15.50;7.60;;;;;22.16;98420.20;;;;108747;1268;41316;-60
2022/10/07 16:34:29;;;;;;;15.30;7.80;;;;;22.00;98422.20;;;;108561;1279;41991;-60
2022/10/07 16:36:58;;;;;;;14.90;7.90;;;;;21.90;98425.60;;;;108669;1276;41146;-60
2022/10/07 16:39:26;;;;;;;11.60;5.30;;;;;21.90;98426.40;;;;108543;1276;41352;-59
2022/10/07 16:41:57;;;;;;;11.10;4.50;;;;;21.80;98421.20;;;;108444;1273;41152;-59
2022/10/07 16:44:25;;;;;;;8.60;4.20;;;;;21.70;98421.00;;;;108410;1272;41165;-60
2022/10/07 16:46:57;;;;;;;9.00;4.20;;;;;21.60;98417.00;;;;108421;1273;41147;-59
2022/10/07 16:49:28;;;;;;;10.20;4.20;;;;;21.50;98420.40;;;;108417;1278;41150;-59
2022/10/07 16:51:57;;;;;;;17.40;6.50;;;;;21.50;98422.00;;;;108607;1279;41629;-59
2022/10/07 16:54:28;;;;;;;190.90;53.00;;;;;21.38;98422.40;;;;108755;1262;41199;-60
2022/10/07 16:56:57;;;;;;;668.50;271.80;;;;;21.30;98420.60;;;;108857;1264;41144;-60
2022/10/07 16:59:25;;;;;;;525.20;217.50;;;;;21.10;98420.60;;;;108812;1266;41357;-59
2022/10/07 17:01:55;;;;;;;265.20;99.60;;;;;20.90;98419.00;;;;108557;1272;41255;-60
2022/10/07 17:04:24;;;;;;;195.90;73.50;;;;;20.68;98420.40;;;;108700;1267;41157;-59
2022/10/07 17:06:53;;;;;;;67.90;29.80;;;;;20.36;98421.80;;;;108646;1279;41170;-59
2022/10/07 17:09:23;;;;;;;65.50;28.10;;;;;20.20;98422.00;;;;108778;1267;41981;-59
2022/10/07 17:11:51;;;;;;;;;;;;;20.10;98417.40;;;;108789;1277;42005;-59
2022/10/07 17:14:21;;;;;;;83.70;32.30;;;;;20.08;98411.80;;;;108823;1275;41143;-59
2022/10/07 17:16:52;;;;;;;54.10;24.90;;;;;20.10;98413.00;;;;108479;1270;41186;-59
2022/10/07 17:19:23;;;;;;;31.10;15.70;;;;;20.10;98415.20;;;;108503;1277;41191;-60
2022/10/07 17:21:53;;;;;;;31.10;14.30;;;;;20.00;98414.20;;;;108635;1279;41143;-59
2022/10/07 17:24:22;;;;;;;24.20;11.90;;;;;20.00;98416.60;;;;108655;1275;41140;-59
2022/10/07 17:26:51;;;;;;;23.60;12.40;;;;;19.90;98414.60;;;;108614;1267;41155;-59
2022/10/07 17:29:23;;;;;;;19.60;9.70;;;;;19.80;98415.00;;;;108508;1275;41151;-59
2022/10/07 17:31:52;;;;;;;16.80;8.90;;;;;19.70;98414.40;;;;108604;1275;41140;-59
2022/10/07 17:34:21;;;;;;;18.50;8.80;;;;;19.58;98413.40;;;;108387;1276;41223;-59